• Join FlightAware (Why Join?)
  • Login
  • US Flag 
04:17PM EDT


 

Airport Tracker/Info


-or-


 

Live Flight TrackerFlight Track Log ✈ VH-JET ✈ 20-Jun-2013 ✈ YSHT - YSCN / CDU

Flight Track Log - Related Links

Times and Time Zones

All times are in EDT time to prevent confusion due to time zone crossing. See the VH-JET flight status page for this flight to view local times or setup timezone preferences in your user account.

Time Position Orientation Groundspeed Altitude Reporting Facility
EDT Latitude Longitude Course Direction KTS MPH feet Rate Location/Type
12:47AM -36.3989 145.4660 64° Northeast 146 168 3,800  Level Aus ATC (RADAR)
12:48AM -36.3871 145.4964 64° Northeast 152 175 4,900 1,620 Climbing Aus ATC (RADAR)
12:48AM -36.3688 145.5368 61° Northeast 151 174 6,400 1,680 Climbing Aus ATC (RADAR)
12:49AM -36.3570 145.5643 62° Northeast 154 177 7,400 1,680 Climbing Aus ATC (RADAR)
12:50AM -36.3277 145.6356 63° Northeast 157 181 9,900 1,620 Climbing Aus ATC (RADAR)
12:51AM -36.3108 145.6759 63° Northeast 160 184 11,200 1,500 Climbing Aus ATC (RADAR)
12:52AM -36.2874 145.7315 62° Northeast 171 197 12,800 1,500 Climbing Aus ATC (RADAR)
12:53AM -36.2747 145.7629 63° Northeast 175 201 13,700 1,500 Climbing Aus ATC (RADAR)
12:54AM -36.2535 145.8124 62° Northeast 181 208 15,100 1,440 Climbing Aus ATC (RADAR)
12:55AM -36.2320 145.8633 62° Northeast 184 212 16,400 1,500 Climbing Aus ATC (RADAR)
12:55AM -36.2168 145.9012 64° Northeast 185 213 17,500 1,500 Climbing Aus ATC (RADAR)
12:56AM -36.1968 145.9481 62° Northeast 186 214 18,700 1,320 Climbing Aus ATC (RADAR)
12:57AM -36.1746 146.0013 63° Northeast 191 220 19,900 1,320 Climbing Aus ATC (RADAR)
12:58AM -36.1602 146.0351 62° Northeast 190 219 20,700 1,320 Climbing Aus ATC (RADAR)
12:59AM -36.1380 146.0863 62° Northeast 184 212 21,900 1,320 Climbing Aus ATC (RADAR)
12:59AM -36.1238 146.1188 62° Northeast 185 213 22,700 720 Climbing Aus ATC (RADAR)
01:01AM -36.0905 146.1977 62° Northeast 225 259 23,300 240 Climbing Aus ATC (RADAR)
01:01AM -36.0635 146.2639 63° Northeast 259 298 23,300  Level Aus ATC (RADAR)
01:02AM -36.0355 146.3342 64° Northeast 273 314 23,300  Level Aus ATC (RADAR)
01:03AM -36.0137 146.3829 61° Northeast 276 318 23,300  Level Aus ATC (RADAR)
01:04AM -35.9797 146.4606 62° Northeast 279 321 23,300  Level Aus ATC (RADAR)
01:04AM -35.9587 146.5110 63° Northeast 280 322 23,300  Level Aus ATC (RADAR)
01:06AM -35.9133 146.6188 63° Northeast 281 323 23,300  Level Aus ATC (RADAR)
01:06AM -35.8820 146.6891 61° Northeast 279 321 23,300  Level Aus ATC (RADAR)
01:07AM -35.8488 146.7671 62° Northeast 278 320 23,300  Level Aus ATC (RADAR)
01:08AM -35.8265 146.8156 60° Northeast 277 319 23,300  Level Aus ATC (RADAR)
01:09AM -35.7873 146.9084 63° Northeast 278 320 23,300  Level Aus ATC (RADAR)
01:10AM -35.7654 146.9575 61° Northeast 278 320 23,300  Level Aus ATC (RADAR)
01:11AM -35.6981 147.1128 62° Northeast 278 320 23,300  Level Aus ATC (RADAR)
01:13AM -35.6467 147.2236 60° Northeast 278 320 23,300  Level Aus ATC (RADAR)
01:14AM -35.6161 147.2951 62° Northeast 281 323 23,300  Level Aus ATC (RADAR)
01:14AM -35.5838 147.3649 60° Northeast 280 322 23,300 -60 Level Aus ATC (RADAR)
01:16AM -35.5374 147.4723 62° Northeast 281 323 23,200 -60 Descending Aus ATC (RADAR)
01:16AM -35.5054 147.5434 61° Northeast 284 327 23,200  Level Aus ATC (RADAR)
01:17AM -35.4713 147.6218 62° Northeast 283 326 23,200  Level Aus ATC (RADAR)
01:18AM -35.4398 147.6922 61° Northeast 280 322 23,200  Level Aus ATC (RADAR)
01:19AM -35.4175 147.7411 61° Northeast 280 322 23,200  Level Aus ATC (RADAR)
01:20AM -35.3836 147.8195 62° Northeast 281 323 23,200  Level Aus ATC (RADAR)
01:21AM -35.3487 147.8965 61° Northeast 279 321 23,200  Level Aus ATC (RADAR)
01:21AM -35.3176 147.9675 62° Northeast 280 322 23,200  Level Aus ATC (RADAR)
01:22AM -35.2952 148.0164 61° Northeast 280 322 23,200  Level Aus ATC (RADAR)
01:23AM -35.2569 148.0995 61° Northeast 276 318 23,200  Level Aus ATC (RADAR)
01:24AM -35.2348 148.1492 61° Northeast 281 323 23,200  Level Aus ATC (RADAR)
01:25AM -35.1935 148.2403 61° Northeast 280 322 23,200  Level Aus ATC (RADAR)
01:26AM -35.1524 148.3317 61° Northeast 280 322 23,200  Level Aus ATC (RADAR)
01:27AM -35.1176 148.4091 61° Northeast 280 322 23,200  Level Aus ATC (RADAR)
01:28AM -35.0823 148.4866 61° Northeast 283 326 23,200  Level Aus ATC (RADAR)
01:28AM -35.0599 148.5359 61° Northeast 282 325 23,200  Level Aus ATC (RADAR)
01:29AM -35.0195 148.6195 59° Northeast 281 323 23,200  Level Aus ATC (RADAR)
01:30AM -34.9901 148.6722 56° Northeast 279 321 23,200  Level Aus ATC (RADAR)
01:31AM -34.9346 148.7722 56° Northeast 282 325 23,200  Level Aus ATC (RADAR)
01:32AM -34.8976 148.8385 56° Northeast 283 326 23,200  Level Aus ATC (RADAR)
01:33AM -34.8531 148.9184 56° Northeast 283 326 23,200  Level Aus ATC (RADAR)
01:34AM -34.8269 148.9650 56° Northeast 284 327 23,200  Level Aus ATC (RADAR)
01:35AM -34.7824 149.0447 56° Northeast 283 326 23,200  Level Aus ATC (RADAR)
01:35AM -34.7526 149.0978 56° Northeast 283 326 23,200  Level Aus ATC (RADAR)
01:36AM -34.7078 149.1776 56° Northeast 282 325 23,200  Level Aus ATC (RADAR)
01:37AM -34.6703 149.2449 56° Northeast 285 328 23,200  Level Aus ATC (RADAR)
01:38AM -34.6248 149.3248 55° Northeast 285 328 23,200 -300 Level Aus ATC (RADAR)
01:39AM -34.5984 149.3721 56° Northeast 286 329 22,800 -1,200 Descending Aus ATC (RADAR)
01:40AM -34.5536 149.4511 55° Northeast 278 320 21,300 -1,560 Descending Aus ATC (RADAR)
01:40AM -34.5282 149.4959 55° Northeast 271 312 20,400 -1,440 Descending Aus ATC (RADAR)
01:41AM -34.4821 149.5775 56° Northeast 263 303 18,900 -1,440 Descending Aus ATC (RADAR)
01:42AM -34.4402 149.6506 55° Northeast 258 297 17,500 -1,440 Descending Aus ATC (RADAR)
01:43AM -34.4022 149.7174 55° Northeast 257 296 16,200 -1,440 Descending Aus ATC (RADAR)
01:44AM -34.3782 149.7596 55° Northeast 256 295 15,400 -1,500 Descending Aus ATC (RADAR)
01:45AM -34.3404 149.8259 55° Northeast 254 292 14,000 -1,560 Descending Aus ATC (RADAR)
01:45AM -34.3136 149.8725 55° Northeast 246 283 13,000 -1,380 Descending Aus ATC (RADAR)
01:47AM -34.2547 149.9747 55° Northeast 241 277 11,100 -1,320 Descending Aus ATC (RADAR)
01:48AM -34.2227 150.0307 55° Northeast 237 273 10,000 -1,260 Descending Aus ATC (RADAR)
01:49AM -34.1748 150.1252 59° Northeast 221 254 8,300 -1,080 Descending Aus ATC (RADAR)
01:50AM -34.1609 150.1827 74° East 206 237 7,700 -780 Descending Aus ATC (RADAR)
01:52AM -34.1322 150.3036 74° East 197 227 6,300 -780 Descending Aus ATC (RADAR)
01:53AM -34.1190 150.3576 74° East 195 224 5,700 -720 Descending Aus ATC (RADAR)
01:54AM -34.1026 150.4268 74° East 191 220 5,000 -720 Descending Aus ATC (RADAR)
01:54AM -34.0936 150.4634 73° East 189 217 4,600 -720 Descending Aus ATC (RADAR)
01:55AM -34.0811 150.5154 74° East 188 216 4,000 -780 Descending Aus ATC (RADAR)
01:56AM -34.0673 150.5725 74° East 187 215 3,300 -780 Descending Aus ATC (RADAR)
01:57AM -34.0530 150.6114 66° East 185 213 2,800 -720 Descending Aus ATC (RADAR)
01:57AM -34.0231 150.6515 48° Northeast 189 217 2,300 -660 Descending Aus ATC (RADAR)
01:58AM -34.0080 150.6882 64° Northeast 154 177 1,800 -720 Descending Aus ATC (RADAR)
01:59AM -34.0090 150.7152 93° East 144 166 1,400 -720 Descending Aus ATC (RADAR)